Time;durP1;ratioP1;P1;durP2;ratioP2;P2;SDS_P1;SDS_P2;PMS_P1;PMS_P2;Temp;Humidity;BMP_temperature;BMP_pressure;BME280_temperature;BME280_humidity;BME280_pressure;Samples;Min_cycle;Max_cycle;Signal;HPM_P1;HPM_P2
2023/07/10 00:02:03;;;;;;;24.73;12.03;;;;;;;17.88;100.00;101353.72;7393869;19;20920;-34
2023/07/10 00:04:33;;;;;;;28.43;12.30;;;;;;;17.89;100.00;101355.47;7373529;19;20403;-37
2023/07/10 00:07:05;;;;;;;20.53;11.20;;;;;;;17.91;100.00;101345.06;7395628;19;20770;-36
2023/07/10 00:09:35;;;;;;;22.70;11.73;;;;;;;17.87;100.00;101346.72;7372263;19;20418;-36
2023/07/10 00:12:06;;;;;;;23.30;12.30;;;;;;;17.84;100.00;101357.09;7393082;19;20430;-36
2023/07/10 00:14:36;;;;;;;23.67;11.83;;;;;;;17.79;100.00;101354.38;7371302;19;21006;-37
2023/07/10 00:17:06;;;;;;;23.00;12.27;;;;;;;17.77;100.00;101365.63;7393793;19;20408;-37
2023/07/10 00:19:36;;;;;;;20.40;12.10;;;;;;;17.79;100.00;101371.78;7371471;19;20782;-36
2023/07/10 00:22:08;;;;;;;27.10;11.80;;;;;;;17.77;100.00;101376.97;7393107;19;20415;-36
2023/07/10 00:24:37;;;;;;;21.80;11.27;;;;;;;17.80;100.00;101368.34;7370555;19;20941;-36
2023/07/10 00:27:13;;;;;;;24.80;12.17;;;;;;;17.78;100.00;101365.69;7393730;19;20415;-37
2023/07/10 00:29:43;;;;;;;20.60;11.50;;;;;;;17.78;100.00;101360.47;7373534;19;20423;-36
2023/07/10 00:32:14;;;;;;;19.93;11.53;;;;;;;17.80;100.00;101361.38;7393502;19;20528;-36
2023/07/10 00:34:44;;;;;;;24.87;11.77;;;;;;;17.77;100.00;101365.63;7370038;19;20790;-37
2023/07/10 00:37:16;;;;;;;29.40;15.90;;;;;;;17.84;100.00;101364.06;7395290;19;20921;-37
2023/07/10 00:39:46;;;;;;;16.83;11.73;;;;;;;17.78;100.00;101370.00;7370952;19;20430;-37
2023/07/10 00:42:19;;;;;;;22.53;11.00;;;;;;;17.81;100.00;101377.91;7395887;19;20427;-37
2023/07/10 00:44:53;;;;;;;23.83;12.07;;;;;;;17.80;100.00;101384.00;7371693;19;20407;-36
2023/07/10 00:47:29;;;;;;;25.33;12.27;;;;;;;17.80;100.00;101381.38;7392423;19;20534;-36
2023/07/10 00:50:03;;;;;;;23.97;12.83;;;;;;;17.71;100.00;101389.88;7371060;19;20402;-36
2023/07/10 00:52:40;;;;;;;20.43;11.97;;;;;;;17.66;100.00;101400.22;7393471;19;20475;-36
2023/07/10 00:55:20;;;;;;;22.33;13.23;;;;;;;17.63;100.00;101394.91;7371475;19;20527;-37
2023/07/10 00:57:52;;;;;;;26.50;11.17;;;;;;;17.63;100.00;101399.25;7393666;19;20419;-35
2023/07/10 01:00:24;;;;;;;18.00;10.90;;;;;;;17.64;100.00;101404.50;7368552;19;20423;-37
2023/07/10 01:02:53;;;;;;;23.87;10.90;;;;;;;17.62;100.00;101392.28;7393676;19;20420;-36
2023/07/10 01:05:23;;;;;;;19.40;11.20;;;;;;;17.62;100.00;101400.09;7367445;19;20443;-36
2023/07/10 01:07:59;;;;;;;21.80;12.43;;;;;;;17.62;100.00;101395.78;7393447;19;20963;-36
2023/07/10 01:10:28;;;;;;;19.00;11.13;;;;;;;17.59;100.00;101393.06;7368082;19;20423;-36
2023/07/10 01:12:58;;;;;;;21.40;11.40;;;;;;;17.60;100.00;101384.44;7392088;19;20407;-37
2023/07/10 01:15:28;;;;;;;19.03;11.37;;;;;;;17.57;100.00;101378.25;7367680;19;20439;-37
2023/07/10 01:17:58;;;;;;;20.37;11.30;;;;;;;17.57;100.00;101373.91;7392863;19;20503;-36
2023/07/10 01:20:34;;;;;;;15.50;10.60;;;;;;;17.59;100.00;101376.56;7368238;19;20964;-37
2023/07/10 01:23:07;;;;;;;18.70;11.03;;;;;;;17.58;100.00;101375.66;7392020;19;21084;-37
2023/07/10 01:25:43;;;;;;;22.50;11.40;;;;;;;17.59;100.00;101380.03;7367564;19;20427;-37
2023/07/10 01:28:17;;;;;;;21.60;11.17;;;;;;;17.61;100.00;101394.03;7393666;19;20410;-37
2023/07/10 01:30:48;;;;;;;15.83;11.63;;;;;;;17.57;100.00;101391.31;7367523;19;20443;-36
2023/07/10 01:33:20;;;;;;;20.10;11.07;;;;;;;17.54;100.00;101384.28;7391792;19;20848;-36
2023/07/10 01:35:52;;;;;;;14.57;10.23;;;;;;;17.59;100.00;101385.25;7368156;19;20506;-36
2023/07/10 01:38:31;;;;;;;14.87;10.00;;;;;;;17.60;100.00;101381.81;7393073;19;20869;-36
2023/07/10 01:41:05;;;;;;;17.93;10.10;;;;;;;17.59;100.00;101374.81;7368338;19;20815;-37
2023/07/10 01:43:35;;;;;;;20.70;11.60;;;;;;;17.58;100.00;101373.06;7393153;19;20407;-37
2023/07/10 01:46:19;;;;;;;16.20;10.40;;;;;;;17.59;100.00;101379.19;7375834;19;20442;-36
2023/07/10 01:48:49;;;;;;;22.53;10.13;;;;;;;17.59;100.00;101381.78;7402019;19;20437;-36
2023/07/10 01:51:20;;;;;;;18.00;11.70;;;;;;;17.65;100.00;101374.09;7374932;19;20552;-38
2023/07/10 01:53:52;;;;;;;14.77;11.07;;;;;;;17.62;100.00;101364.47;7398325;19;20399;-35
2023/07/10 01:56:23;;;;;;;16.37;10.43;;;;;;;17.61;100.00;101365.31;7372950;19;20438;-36
2023/07/10 01:58:53;;;;;;;17.93;11.23;;;;;;;17.60;100.00;101366.16;7398584;19;20417;-36
2023/07/10 02:01:23;;;;;;;17.40;12.03;;;;;;;17.61;100.00;101370.53;7373496;19;20449;-36
2023/07/10 02:03:53;;;;;;;19.33;12.90;;;;;;;17.56;100.00;101372.16;7398127;19;20491;-37
2023/07/10 02:06:23;;;;;;;23.13;11.50;;;;;;;17.53;100.00;101375.56;7375017;19;20466;-36
2023/07/10 02:08:55;;;;;;;18.03;12.63;;;;;;;17.47;100.00;101383.25;7398738;19;20486;-36
2023/07/10 02:11:25;;;;;;;17.07;9.70;;;;;;;17.50;100.00;101387.66;7374085;19;20423;-37
2023/07/10 02:13:55;;;;;;;17.60;10.30;;;;;;;17.57;100.00;101391.31;7398082;19;20439;-36
2023/07/10 02:16:25;;;;;;;19.57;10.87;;;;;;;17.56;100.00;101385.19;7374519;19;20438;-37
2023/07/10 02:18:54;;;;;;;20.80;11.77;;;;;;;17.54;100.00;101385.16;7399188;19;20886;-37
2023/07/10 02:21:24;;;;;;;20.57;11.27;;;;;;;17.53;100.00;101382.50;7373693;19;20415;-36
2023/07/10 02:23:56;;;;;;;17.87;11.20;;;;;;;17.57;100.00;101386.09;7400163;19;20948;-37
2023/07/10 02:26:26;;;;;;;18.13;10.63;;;;;;;17.59;100.00;101390.47;7373485;19;20435;-37
2023/07/10 02:28:57;;;;;;;17.17;10.80;;;;;;;17.61;100.00;101396.63;7398948;19;20419;-37
2023/07/10 02:31:26;;;;;;;16.60;10.83;;;;;;;17.61;100.00;101394.03;7373461;19;20419;-37
2023/07/10 02:33:56;;;;;;;15.40;8.83;;;;;;;17.61;100.00;101396.63;7397668;19;20970;-37
2023/07/10 02:36:27;;;;;;;21.97;9.70;;;;;;;17.60;100.00;101394.88;7373548;19;20454;-36
2023/07/10 02:38:59;;;;;;;19.07;10.30;;;;;;;17.58;100.00;101396.53;7399541;19;20415;-37
2023/07/10 02:41:29;;;;;;;16.93;10.10;;;;;;;17.56;100.00;101398.25;7375549;19;20932;-37
2023/07/10 02:43:59;;;;;;;17.43;9.50;;;;;;;17.57;100.00;101405.22;7402461;19;20494;-36
2023/07/10 02:46:28;;;;;;;21.60;10.60;;;;;;;17.59;100.00;101408.72;7374654;19;20458;-37
2023/07/10 02:48:58;;;;;;;14.13;9.60;;;;;;;17.62;100.00;101407.91;7402761;19;20853;-37
2023/07/10 02:51:27;;;;;;;20.50;9.63;;;;;;;17.59;100.00;101403.50;7375741;19;20803;-37
2023/07/10 02:54:00;;;;;;;16.07;9.70;;;;;;;17.59;100.00;101403.50;7401437;19;20419;-36
2023/07/10 02:56:29;;;;;;;19.77;11.30;;;;;;;17.59;100.00;101419.16;7374870;19;20466;-36
2023/07/10 02:58:59;;;;;;;18.47;8.90;;;;;;;17.56;100.00;101419.13;7400981;19;20429;-37
2023/07/10 03:01:28;;;;;;;16.37;9.63;;;;;;;17.59;100.00;101420.91;7374411;19;20423;-36
2023/07/10 03:03:58;;;;;;;19.70;9.47;;;;;;;17.62;100.00;101419.25;7399455;19;20387;-37
2023/07/10 03:06:28;;;;;;;16.87;10.60;;;;;;;17.61;100.00;101414.88;7370904;19;20451;-36
2023/07/10 03:09:00;;;;;;;20.20;10.87;;;;;;;17.59;100.00;101423.53;7397347;19;20408;-37
2023/07/10 03:11:29;;;;;;;15.80;9.03;;;;;;;17.58;100.00;101427.84;7374054;19;21011;-37
2023/07/10 03:14:01;;;;;;;15.63;10.67;;;;;;;17.59;100.00;101433.97;7399248;19;20419;-36
2023/07/10 03:16:30;;;;;;;22.10;10.97;;;;;;;17.63;100.00;101420.13;7371855;19;20463;-37
2023/07/10 03:19:00;;;;;;;19.03;10.63;;;;;;;17.59;100.00;101427.00;7397997;19;20408;-37
2023/07/10 03:21:30;;;;;;;16.33;10.73;;;;;;;17.61;100.00;101433.16;7373464;19;20550;-37
2023/07/10 03:24:02;;;;;;;23.30;12.80;;;;;;;17.66;100.00;101431.53;7396751;19;20487;-37
2023/07/10 03:26:32;;;;;;;15.00;11.43;;;;;;;17.70;100.00;101422.06;7371008;19;20471;-37
2023/07/10 03:29:07;;;;;;;16.30;11.10;;;;;;;17.76;100.00;101426.50;7399115;19;20448;-37
2023/07/10 03:31:36;;;;;;;21.50;13.13;;;;;;;17.68;100.00;101437.66;7372829;19;21040;-37
2023/07/10 03:34:06;;;;;;;34.83;13.13;;;;;;;17.64;100.00;101434.94;7396677;19;20415;-37
2023/07/10 03:36:36;;;;;;;18.00;13.40;;;;;;;17.62;100.00;101436.63;7370465;19;20994;-37
2023/07/10 03:39:09;;;;;;;21.63;13.80;;;;;;;17.70;100.00;101436.81;7398799;19;21038;-37
2023/07/10 03:41:38;;;;;;;19.90;12.80;;;;;;;17.70;100.00;101428.97;7375361;19;20470;-36
2023/07/10 03:44:08;;;;;;;21.73;14.80;;;;;;;17.71;100.00;101420.31;7398749;19;20471;-36
2023/07/10 03:46:37;;;;;;;23.47;14.60;;;;;;;17.69;100.00;101422.88;7369754;19;20852;-41
2023/07/10 03:49:07;;;;;;;24.80;14.00;;;;;;;17.74;100.00;101417.78;7397082;19;20442;-37
2023/07/10 03:51:37;;;;;;;25.13;15.47;;;;;;;17.75;100.00;101414.31;7371550;19;20498;-36
2023/07/10 03:54:10;;;;;;;22.10;16.23;;;;;;;17.74;100.00;101405.59;7396787;19;21083;-36
2023/07/10 03:56:39;;;;;;;20.40;15.30;;;;;;;17.74;100.00;101400.38;7370381;19;20483;-36
2023/07/10 03:59:10;;;;;;;25.30;16.00;;;;;;;17.72;100.00;101394.25;7398264;19;20995;-37
2023/07/10 04:01:42;;;;;;;30.03;16.17;;;;;;;17.75;100.00;101388.22;7371130;19;20483;-37
2023/07/10 04:04:12;;;;;;;26.77;14.63;;;;;;;17.71;100.00;101391.59;7395552;19;20403;-35
2023/07/10 04:06:41;;;;;;;26.33;16.43;;;;;;;17.75;100.00;101383.00;7368229;19;20490;-36
2023/07/10 04:09:13;;;;;;;20.67;15.17;;;;;;;17.80;100.00;101384.00;7401520;19;20495;-37
2023/07/10 04:11:43;;;;;;;25.47;16.70;;;;;;;17.75;100.00;101380.41;7371968;19;20519;-37
2023/07/10 04:14:13;;;;;;;22.13;15.03;;;;;;;17.78;100.00;101377.84;7395637;19;20404;-37
2023/07/10 04:16:42;;;;;;;22.70;15.90;;;;;;;17.76;100.00;101364.78;7369292;19;20483;-37
2023/07/10 04:19:12;;;;;;;24.57;16.10;;;;;;;17.74;100.00;101365.59;7395926;19;20415;-37
2023/07/10 04:21:42;;;;;;;26.07;17.07;;;;;;;17.70;100.00;101364.66;7371345;19;20434;-36
2023/07/10 04:24:14;;;;;;;22.50;16.27;;;;;;;17.69;100.00;101347.19;7395389;19;20482;-36
2023/07/10 04:26:44;;;;;;;26.27;17.40;;;;;;;17.71;100.00;101350.75;7369427;19;20879;-36
2023/07/10 04:29:14;;;;;;;25.17;17.50;;;;;;;17.75;100.00;101341.25;7395866;19;20422;-36
2023/07/10 04:31:43;;;;;;;32.20;17.97;;;;;;;17.72;100.00;101335.94;7370249;19;20463;-36
2023/07/10 04:34:13;;;;;;;31.83;17.93;;;;;;;17.73;100.00;101345.56;7394933;19;20403;-36
2023/07/10 04:36:43;;;;;;;28.23;18.00;;;;;;;17.73;100.00;101341.22;7369774;19;20998;-36
2023/07/10 04:39:15;;;;;;;33.00;20.03;;;;;;;17.73;100.00;101325.56;7396098;19;20475;-36
2023/07/10 04:41:45;;;;;;;26.67;19.43;;;;;;;17.76;100.00;101332.56;7370569;19;20499;-37
2023/07/10 04:44:14;;;;;;;27.17;19.20;;;;;;;17.81;100.00;101320.50;7396819;19;20429;-36
2023/07/10 04:46:44;;;;;;;27.93;18.37;;;;;;;17.83;100.00;101313.56;7367898;19;20477;-36
2023/07/10 04:49:13;;;;;;;28.40;18.77;;;;;;;17.86;100.00;101302.31;7394788;19;20416;-36
2023/07/10 04:51:43;;;;;;;28.83;18.50;;;;;;;17.87;100.00;101297.13;7369717;19;20974;-36
2023/07/10 04:54:15;;;;;;;36.37;19.40;;;;;;;17.90;100.00;101291.97;7394207;19;20399;-36
2023/07/10 04:56:46;;;;;;;30.40;19.60;;;;;;;17.90;100.00;101294.56;7369552;19;20462;-36
2023/07/10 04:59:16;;;;;;;28.83;19.67;;;;;;;17.93;100.00;101293.75;7394626;19;20403;-36
2023/07/10 05:01:45;;;;;;;31.90;21.37;;;;;;;17.91;100.00;101283.31;7366908;19;20427;-36
2023/07/10 05:04:15;;;;;;;30.83;20.80;;;;;;;17.93;100.00;101273.78;7394102;19;20436;-36
2023/07/10 05:06:44;;;;;;;33.87;22.10;;;;;;;17.93;100.00;101281.59;7363643;19;20450;-36
2023/07/10 05:09:16;;;;;;;33.47;22.30;;;;;;;17.93;100.00;101279.00;7394011;19;20412;-37
2023/07/10 05:11:46;;;;;;;32.83;21.67;;;;;;;17.97;100.00;101286.88;7371397;19;20625;-36
2023/07/10 05:14:16;;;;;;;33.57;21.90;;;;;;;18.06;100.00;101290.56;7395751;19;20460;-37
2023/07/10 05:16:45;;;;;;;34.20;22.30;;;;;;;18.03;100.00;101280.06;7366925;19;20470;-36
2023/07/10 05:19:15;;;;;;;33.03;22.10;;;;;;;18.05;100.00;101280.97;7393196;19;20421;-36
2023/07/10 05:21:45;;;;;;;32.47;22.10;;;;;;;18.04;100.00;101286.13;7369068;19;20438;-36
2023/07/10 05:24:17;;;;;;;32.57;20.77;;;;;;;18.06;100.00;101284.47;7394884;19;21149;-36
2023/07/10 05:26:47;;;;;;;43.20;24.53;;;;;;;18.03;100.00;101294.81;7366566;19;20471;-36
2023/07/10 05:29:17;;;;;;;34.73;22.00;;;;;;;18.01;100.00;101302.66;7393043;19;20408;-36
2023/07/10 05:31:46;;;;;;;32.97;22.40;;;;;;;18.04;100.00;101307.03;7369567;19;20522;-37
2023/07/10 05:34:18;;;;;;;42.43;25.00;;;;;;;18.26;100.00;101303.16;7394060;19;20396;-36
2023/07/10 05:36:48;;;;;;;32.67;23.20;;;;;;;18.39;100.00;101303.34;7367675;19;20496;-37
2023/07/10 05:39:20;;;;;;;33.47;22.10;;;;;;;18.46;100.00;101298.25;7394782;19;20412;-38
2023/07/10 05:41:50;;;;;;;34.10;23.80;;;;;;;18.65;100.00;101302.94;7370563;19;20443;-37
2023/07/10 05:44:19;;;;;;;29.60;21.00;;;;;;;18.60;100.00;101318.53;7394182;19;20429;-37
2023/07/10 05:46:49;;;;;;;30.87;20.80;;;;;;;18.43;100.00;101320.84;7366491;19;21100;-37
2023/07/10 05:49:18;;;;;;;29.07;20.63;;;;;;;18.43;100.00;101326.97;7393416;19;20435;-37
2023/07/10 05:51:48;;;;;;;29.87;21.23;;;;;;;18.53;100.00;101322.78;7369539;19;20439;-36
2023/07/10 05:54:20;;;;;;;31.40;21.50;;;;;;;18.74;100.00;101318.78;7394944;19;20483;-36
2023/07/10 05:56:50;;;;;;;25.63;18.43;;;;;;;18.64;100.00;101333.41;7367784;19;20467;-36
2023/07/10 05:59:19;;;;;;;28.33;18.10;;;;;;;18.59;100.00;101348.13;7392815;19;20770;-36
2023/07/10 06:01:49;;;;;;;28.37;19.03;;;;;;;18.66;100.00;101339.53;7364751;19;20439;-37
2023/07/10 06:04:19;;;;;;;34.83;23.43;;;;;;;18.84;100.00;101332.88;7392685;19;20392;-37
2023/07/10 06:06:48;;;;;;;27.07;19.47;;;;;;;18.78;100.00;101317.97;7365177;19;20550;-36
2023/07/10 06:09:20;;;;;;;28.37;21.10;;;;;;;18.74;100.00;101309.22;7392073;19;20407;-36
2023/07/10 06:11:50;;;;;;;27.77;17.40;;;;;;;18.75;100.00;101313.56;7367153;19;20497;-36
2023/07/10 06:14:19;;;;;;;24.40;16.77;;;;;;;18.65;100.00;101329.09;7391530;19;20411;-36
2023/07/10 06:16:49;;;;;;;23.00;17.10;;;;;;;18.68;100.00;101352.63;7366067;19;20469;-36
2023/07/10 06:19:20;;;;;;;22.43;17.23;;;;;;;18.73;100.00;101356.22;7392423;19;20482;-36
2023/07/10 06:21:50;;;;;;;25.20;18.20;;;;;;;18.82;100.00;101351.13;7367503;19;20458;-36
2023/07/10 06:24:22;;;;;;;41.00;26.20;;;;;;;18.82;100.00;101345.03;7391906;19;20420;-36
2023/07/10 06:26:51;;;;;;;27.77;18.63;;;;;;;18.78;100.00;101335.38;7367729;19;20893;-36
2023/07/10 06:29:21;;;;;;;39.90;24.67;;;;;;;18.78;100.00;101327.53;7392811;19;20407;-36
2023/07/10 06:31:51;;;;;;;28.13;18.83;;;;;;;18.79;100.00;101317.13;7377574;19;21294;-36
2023/07/10 06:34:21;;;;;;;28.00;19.43;;;;;;;18.81;100.00;101298.84;7400765;19;20435;-36
2023/07/10 06:36:50;;;;;;;28.97;19.70;;;;;;;18.81;100.00;101291.88;7372652;19;20925;-36
2023/07/10 06:39:23;;;;;;;72.47;33.67;;;;;;;18.74;100.00;101296.13;7400255;19;20403;-36
2023/07/10 06:41:53;;;;;;;43.20;23.00;;;;;;;18.61;100.00;101331.63;7377915;19;20447;-37
2023/07/10 06:44:23;;;;;;;36.10;23.80;;;;;;;18.53;100.00;101342.78;7400144;19;20839;-36
2023/07/10 06:46:53;;;;;;;33.40;22.93;;;;;;;18.50;100.00;101338.38;7372348;19;21022;-36
2023/07/10 06:49:22;;;;;;;35.20;22.53;;;;;;;18.48;100.00;101330.53;7397450;19;20415;-36
2023/07/10 06:51:52;;;;;;;43.27;26.60;;;;;;;18.52;100.00;101321.03;7375437;19;20459;-37
2023/07/10 06:54:24;;;;;;;48.93;28.80;;;;;;;18.42;100.00;101325.22;7394294;19;20486;-37
2023/07/10 06:56:53;;;;;;;39.13;25.60;;;;;;;18.37;100.00;101359.91;7371695;19;20477;-36
2023/07/10 06:59:23;;;;;;;37.37;25.93;;;;;;;18.25;100.00;101376.22;7396970;19;20432;-36
2023/07/10 07:01:53;;;;;;;42.00;24.60;;;;;;;18.29;100.00;101375.44;7374483;19;20442;-37
2023/07/10 07:04:22;;;;;;;36.10;25.40;;;;;;;18.26;100.00;101360.59;7396029;19;20403;-36
2023/07/10 07:06:54;;;;;;;47.13;27.60;;;;;;;18.23;100.00;101342.25;7367639;19;20481;-37
2023/07/10 07:09:26;;;;;;;42.47;27.80;;;;;;;18.25;100.00;101324.88;7394122;19;20403;-37
2023/07/10 07:11:55;;;;;;;40.30;26.77;;;;;;;18.26;100.00;101315.31;7372082;19;20467;-36
2023/07/10 07:14:25;;;;;;;39.40;26.83;;;;;;;18.23;100.00;101318.75;7392713;19;20415;-36
2023/07/10 07:16:55;;;;;;;41.60;27.07;;;;;;;18.19;100.00;101323.03;7369175;19;20459;-36
2023/07/10 07:19:25;;;;;;;46.10;29.47;;;;;;;18.18;100.00;101347.38;7395687;19;20408;-36
2023/07/10 07:21:54;;;;;;;36.60;26.40;;;;;;;18.21;100.00;101341.34;7371951;19;20948;-36
2023/07/10 07:24:26;;;;;;;41.50;26.70;;;;;;;18.16;100.00;101330.78;7394301;19;20430;-35
2023/07/10 07:26:56;;;;;;;36.60;25.13;;;;;;;18.22;100.00;101319.59;7369513;19;20461;-36
2023/07/10 07:29:26;;;;;;;38.60;26.83;;;;;;;18.41;100.00;101315.59;7392724;19;20406;-36
2023/07/10 07:31:55;;;;;;;33.93;23.27;;;;;;;18.44;100.00;101319.97;7372550;19;20451;-36
2023/07/10 07:34:25;;;;;;;32.57;22.57;;;;;;;18.49;100.00;101316.63;7396833;19;20405;-37
2023/07/10 07:36:55;;;;;;;49.83;29.47;;;;;;;18.67;100.00;101304.69;7371748;19;20470;-38
2023/07/10 07:39:31;;;;;;;42.10;22.87;;;;;;;18.80;100.00;101305.81;7394738;19;20487;-38
2023/07/10 07:42:01;;;;;;;42.90;25.00;;;;;;;18.87;100.00;101306.78;7371575;19;20447;-37
2023/07/10 07:44:31;;;;;;;31.17;21.37;;;;;;;18.96;100.00;101319.09;7371869;19;20492;-37
2023/07/10 07:47:01;;;;;;;23.70;16.93;;;;;;;19.09;100.00;101315.88;7395651;19;20415;-38
2023/07/10 07:49:30;;;;;;;17.70;14.10;;;;;;;19.23;100.00;101323.91;7372448;19;20399;-37
2023/07/10 07:52:00;;;;;;;19.30;14.70;;;;;;;19.26;100.00;101339.66;7394557;19;20416;-37
2023/07/10 07:54:32;;;;;;;28.33;15.67;;;;;;;19.25;100.00;101339.63;7374304;19;20408;-36
2023/07/10 07:57:02;;;;;;;24.03;14.37;;;;;;;19.15;100.00;101338.63;7393732;19;20415;-36
2023/07/10 07:59:31;;;;;;;24.40;12.30;;;;;;;19.15;100.00;101343.84;7371060;19;20408;-36
2023/07/10 08:02:01;;;;;;;21.23;13.87;;;;;;;19.15;100.00;101367.41;7396720;19;20425;-36
2023/07/10 08:04:31;;;;;;;22.77;12.03;;;;;;;19.22;100.00;101392.78;7366134;19;20839;-36
2023/07/10 08:07:01;;;;;;;27.13;14.70;;;;;;;19.14;100.00;101408.34;7395801;19;20410;-36
2023/07/10 08:09:33;;;;;;;34.20;15.90;;;;;;;19.07;100.00;101413.47;7370683;19;20392;-37
2023/07/10 08:12:03;;;;;;;35.30;21.10;;;;;;;19.01;100.00;101424.66;7393431;19;20400;-36
2023/07/10 08:14:32;;;;;;;33.10;18.00;;;;;;;18.94;100.00;101423.69;7374879;19;20487;-36
2023/07/10 08:17:02;;;;;;;34.27;18.50;;;;;;;18.98;100.00;101430.69;7392683;19;20411;-37
2023/07/10 08:19:32;;;;;;;30.03;17.67;;;;;;;18.96;100.00;101432.41;7373920;19;20751;-36
2023/07/10 08:22:01;;;;;;;36.90;21.10;;;;;;;18.86;100.00;101446.16;7396205;19;20416;-36
2023/07/10 08:24:34;;;;;;;28.53;18.40;;;;;;;18.92;100.00;101438.44;7375512;19;20421;-37
2023/07/10 08:27:04;;;;;;;31.60;17.47;;;;;;;18.82;100.00;101441.75;7396975;19;20411;-36
2023/07/10 08:29:35;;;;;;;34.37;18.00;;;;;;;18.83;100.00;101441.78;7373994;19;20411;-37
2023/07/10 08:32:05;;;;;;;35.63;17.40;;;;;;;18.86;100.00;101438.31;7393737;19;20409;-36
2023/07/10 08:34:35;;;;;;;25.97;16.77;;;;;;;19.03;100.00;101436.06;7374201;19;20384;-37
2023/07/10 08:37:08;;;;;;;28.57;15.90;;;;;;;19.06;100.00;101432.63;7394894;19;20478;-37
2023/07/10 08:39:42;;;;;;;21.67;12.57;;;;;;;19.20;100.00;101425.88;7372734;19;21018;-37
2023/07/10 08:42:18;;;;;;;18.80;13.37;;;;;;;19.29;100.00;101433.00;7397530;19;20471;-37
2023/07/10 08:44:49;;;;;;;14.47;10.70;;;;;;;19.35;100.00;101448.81;7373713;19;20388;-36
2023/07/10 08:47:22;;;;;;;20.50;11.93;;;;;;;19.43;100.00;101456.75;7395667;19;20396;-36
2023/07/10 08:49:56;;;;;;;22.03;9.27;;;;;;;19.37;100.00;101461.88;7371461;19;20420;-37
2023/07/10 08:52:41;;;;;;;15.20;10.20;;;;;;;19.38;100.00;101487.22;7395031;19;20950;-36
2023/07/10 08:55:19;;;;;;;16.60;8.97;;;;;;;19.43;100.00;101502.13;7372215;19;21400;-36
2023/07/10 08:57:56;;;;;;;10.97;8.10;;;;;;;19.46;100.00;101500.41;7394360;19;20437;-36
2023/07/10 09:00:28;;;;;;;15.53;9.70;;;;;;;19.62;100.00;101517.25;7367497;19;20425;-36
2023/07/10 09:03:05;;;;;;;13.23;8.43;;;;;;;19.82;100.00;101526.31;7393990;19;20411;-36
2023/07/10 09:05:37;;;;;;;37.67;18.97;;;;;;;20.04;100.00;101533.66;7366562;19;20458;-36
2023/07/10 09:08:08;;;;;;;21.60;11.83;;;;;;;20.16;100.00;101549.56;7396263;19;20414;-36
2023/07/10 09:10:42;;;;;;;9.40;6.47;;;;;;;20.12;100.00;101565.16;7367919;19;20411;-37
2023/07/10 09:13:16;;;;;;;13.63;7.10;;;;;;;19.93;100.00;101567.47;7396712;19;20410;-36
2023/07/10 09:15:50;;;;;;;14.77;8.07;;;;;;;19.88;100.00;101567.41;7369245;19;21086;-37
2023/07/10 09:18:23;;;;;;;13.20;6.80;;;;;;;19.89;100.00;101587.50;7395946;19;20406;-36
2023/07/10 09:20:55;;;;;;;20.17;10.43;;;;;;;19.83;100.00;101596.13;7368575;19;20423;-36
2023/07/10 09:23:28;;;;;;;17.13;6.30;;;;;;;20.03;100.00;101606.09;7394040;19;20418;-36
2023/07/10 09:26:12;;;;;;;9.20;4.90;;;;;;;20.00;100.00;101624.34;7367365;19;20459;-36
2023/07/10 09:28:42;;;;;;;25.40;11.43;;;;;;;20.06;100.00;101642.78;7394221;19;20411;-36
2023/07/10 09:31:23;;;;;;;9.80;5.20;;;;;;;20.26;100.00;101667.56;7369426;19;20533;-37
2023/07/10 09:33:55;;;;;;;8.83;5.37;;;;;;;20.41;100.00;101690.50;7389927;19;20407;-36
2023/07/10 09:36:24;;;;;;;14.03;6.17;;;;;;;20.50;100.00;101735.19;7365659;19;20451;-36
2023/07/10 09:38:55;;;;;;;11.30;5.73;;;;;;;20.54;100.00;101747.50;7393324;19;20486;-37
2023/07/10 09:41:29;;;;;;;10.93;5.87;;;;;;;20.67;100.00;101769.56;7367580;19;20482;-37
2023/07/10 09:44:01;;;;;;;12.13;6.53;;;;;;;20.94;100.00;101767.34;7392614;19;20411;-36
2023/07/10 09:46:32;;;;;;;11.10;6.47;;;;;;;21.04;100.00;101775.34;7365279;19;20459;-36
2023/07/10 09:49:04;;;;;;;11.70;5.80;;;;;;;20.88;100.00;101790.00;7392335;19;20412;-36
2023/07/10 09:51:34;;;;;;;7.37;4.27;;;;;;;21.00;100.00;101777.91;7368504;19;20459;-37
2023/07/10 09:54:06;;;;;;;7.80;4.63;;;;;;;20.91;100.00;101794.41;7395182;19;20475;-38
2023/07/10 09:56:40;;;;;;;9.63;4.90;;;;;;;20.98;100.00;101803.25;7366983;19;20522;-37
2023/07/10 09:59:21;;;;;;;13.17;6.47;;;;;;;20.83;100.00;101811.72;7395078;19;20860;-37
2023/07/10 10:01:52;;;;;;;16.20;8.80;;;;;;;20.91;100.00;101811.03;7367766;19;20510;-36
2023/07/10 10:04:24;;;;;;;8.53;4.27;;;;;;;21.14;100.00;101812.22;7392621;19;20407;-37
2023/07/10 10:06:59;;;;;;;14.20;6.03;;;;;;;21.35;100.00;101813.38;7373631;19;20546;-36
2023/07/10 10:09:29;;;;;;;6.27;3.70;;;;;;;21.22;100.00;101830.72;7374928;19;20405;-37
2023/07/10 10:12:05;;;;;;;9.80;4.50;;;;;;;21.25;100.00;101838.63;7400375;19;20407;-36
2023/07/10 10:14:43;;;;;;;27.00;13.77;;;;;;;21.32;100.00;101848.34;7374124;19;20391;-37
2023/07/10 10:17:16;;;;;;;8.60;4.03;;;;;;;21.46;100.00;101848.53;7397666;19;20479;-36
2023/07/10 10:19:49;;;;;;;6.50;3.80;;;;;;;21.39;100.00;101863.31;7374124;19;20443;-36
2023/07/10 10:22:19;;;;;;;11.77;5.77;;;;;;;21.51;100.00;101854.75;7397121;19;20399;-37
2023/07/10 10:24:48;;;;;;;14.60;8.03;;;;;;;21.28;100.00;101888.53;7374043;19;20424;-37
2023/07/10 10:27:30;;;;;;;11.53;5.47;;;;;;;21.39;100.00;101892.19;7398045;19;20416;-37
2023/07/10 10:30:19;;;;;;;7.40;3.83;;;;;;;21.56;100.00;101902.94;7375059;19;20889;-38
2023/07/10 10:32:53;;;;;;;9.67;5.80;;;;;;;21.76;100.00;101898.84;7397111;19;20471;-36
2023/07/10 10:35:27;;;;;;;21.57;9.13;;;;;;;22.02;100.00;101900.91;7373590;19;20439;-37
2023/07/10 10:38:05;;;;;;;7.47;4.37;;;;;;;21.95;100.00;101900.84;7397785;19;20487;-37
2023/07/10 10:40:42;;;;;;;15.93;5.83;;;;;;;21.83;100.00;101924.31;7372460;19;20457;-37
2023/07/10 10:43:48;;;;;;;12.00;6.40;;;;;;;21.68;100.00;101919.72;7400284;19;20410;-37
2023/07/10 10:46:25;;;;;;;17.27;8.73;;;;;;;21.54;100.00;101927.41;7371034;19;20511;-36
2023/07/10 10:49:03;;;;;;;7.80;4.40;;;;;;;21.66;100.00;101910.94;7398343;19;20415;-36
2023/07/10 10:51:38;;;;;;;8.30;5.17;;;;;;;21.94;100.00;101900.84;7373921;19;20470;-37
2023/07/10 10:54:16;;;;;;;9.97;5.23;;;;;;;21.84;100.00;101905.97;7400516;19;20409;-37
2023/07/10 10:57:12;;;;;;;6.27;3.53;;;;;;;21.93;100.00;101920.06;7373822;19;20455;-37
2023/07/10 10:59:53;;;;;;;9.20;3.23;;;;;;;22.00;100.00;101932.44;7374139;19;20416;-37
2023/07/10 11:02:39;;;;;;;9.47;3.67;;;;;;;21.94;100.00;101938.50;7396708;19;20431;-37
2023/07/10 11:05:15;;;;;;;6.57;3.67;;;;;;;21.93;100.00;101934.09;7371493;19;20439;-37
2023/07/10 11:07:45;;;;;;;8.20;3.23;;;;;;;21.75;100.00;101944.34;7399083;19;20407;-37
2023/07/10 11:10:17;;;;;;;9.00;4.00;;;;;;;21.79;100.00;101943.56;7373178;19;20431;-37
2023/07/10 11:12:47;;;;;;;8.60;3.43;;;;;;;21.62;100.00;101940.63;7399191;19;20412;-37
2023/07/10 11:15:22;;;;;;;6.80;3.93;;;;;;;21.91;100.00;101933.22;7372301;19;20494;-36
2023/07/10 11:17:53;;;;;;;7.10;3.80;;;;;;;21.95;100.00;101932.38;7394078;19;20411;-37
2023/07/10 11:20:23;;;;;;;5.80;3.20;;;;;;;22.29;100.00;101933.66;7373370;19;20799;-37
2023/07/10 11:22:54;;;;;;;8.97;4.10;;;;;;;22.03;100.00;101921.06;7399035;19;20407;-37
2023/07/10 11:25:37;;;;;;;7.97;4.37;;;;;;;22.20;100.00;101935.31;7372717;19;20542;-36